Time;durP1;ratioP1;P1;durP2;ratioP2;P2;SDS_P1;SDS_P2;PMS_P1;PMS_P2;Temp;Humidity;BMP_temperature;BMP_pressure;BME280_temperature;BME280_humidity;BME280_pressure;Samples;Min_cycle;Max_cycle;Signal;HPM_P1;HPM_P2
2022/03/01 00:02:13;;;;;;;21.17;13.60;;;;;;;;;;5032388;28;20442;-58
2022/03/01 00:04:39;;;;;;;18.40;13.03;;;;;;;;;;5032011;28;20543;-57
2022/03/01 00:07:07;;;;;;;20.87;13.53;;;;;;;;;;5031478;28;20655;-58
2022/03/01 00:09:33;;;;;;;19.67;13.47;;;;;;;;;;5031859;28;20841;-59
2022/03/01 00:11:59;;;;;;;20.63;13.43;;;;;;;;;;5032042;28;20874;-58
2022/03/01 00:14:27;;;;;;;18.60;12.97;;;;;;;;;;5031800;28;20552;-58
2022/03/01 00:16:54;;;;;;;17.70;13.03;;;;;;;;;;5031973;28;20595;-59
2022/03/01 00:19:20;;;;;;;20.90;12.80;;;;;;;;;;5031828;28;20498;-59
2022/03/01 00:21:46;;;;;;;23.90;14.77;;;;;;;;;;5031868;28;20539;-57
2022/03/01 00:24:12;;;;;;;19.47;13.33;;;;;;;;;;5031706;28;20483;-58
2022/03/01 00:26:38;;;;;;;18.13;12.67;;;;;;;;;;5031259;28;20503;-58
2022/03/01 00:29:04;;;;;;;20.87;13.30;;;;;;;;;;5031547;28;21032;-58
2022/03/01 00:31:32;;;;;;;19.37;13.00;;;;;;;;;;5031693;28;20514;-59
2022/03/01 00:33:58;;;;;;;21.03;14.30;;;;;;;;;;5031864;28;20480;-59
2022/03/01 00:36:24;;;;;;;18.13;12.77;;;;;;;;;;5031518;28;20436;-57
2022/03/01 00:38:50;;;;;;;20.33;12.87;;;;;;;;;;5031432;28;20521;-57
2022/03/01 00:41:16;;;;;;;19.30;13.57;;;;;;;;;;5031735;28;20214;-57
2022/03/01 00:43:42;;;;;;;18.43;12.67;;;;;;;;;;5031466;28;20447;-57
2022/03/01 00:46:08;;;;;;;19.03;13.23;;;;;;;;;;5031562;28;20201;-57
2022/03/01 00:48:35;;;;;;;20.33;13.33;;;;;;;;;;5031331;28;20444;-59
2022/03/01 00:51:01;;;;;;;21.77;13.07;;;;;;;;;;5031679;28;20435;-57
2022/03/01 00:53:27;;;;;;;18.63;12.47;;;;;;;;;;5031434;28;20431;-57
2022/03/01 00:55:53;;;;;;;19.83;12.67;;;;;;;;;;5031526;28;20969;-58
2022/03/01 00:58:19;;;;;;;21.20;14.07;;;;;;;;;;5031272;28;20207;-57
2022/03/01 01:00:45;;;;;;;21.90;13.93;;;;;;;;;;5031424;28;20200;-58
2022/03/01 01:03:11;;;;;;;20.53;12.90;;;;;;;;;;5031347;28;20201;-57
2022/03/01 01:05:38;;;;;;;19.97;13.63;;;;;;;;;;5031166;28;20431;-57
2022/03/01 01:08:05;;;;;;;18.50;12.50;;;;;;;;;;5031153;28;20945;-58
2022/03/01 01:10:31;;;;;;;21.57;13.27;;;;;;;;;;5031165;28;21041;-58
2022/03/01 01:12:57;;;;;;;19.70;12.93;;;;;;;;;;5031339;28;20519;-57
2022/03/01 01:15:23;;;;;;;19.77;13.27;;;;;;;;;;5031072;28;20570;-58
2022/03/01 01:17:49;;;;;;;17.87;12.43;;;;;;;;;;5031040;28;20209;-58
2022/03/01 01:20:16;;;;;;;19.90;12.90;;;;;;;;;;5033718;28;20201;-57
2022/03/01 01:22:43;;;;;;;18.37;13.50;;;;;;;;;;5035358;28;20483;-57
2022/03/01 01:25:10;;;;;;;19.17;12.70;;;;;;;;;;5034698;28;20476;-57
2022/03/01 01:27:36;;;;;;;18.33;12.70;;;;;;;;;;5033760;28;20511;-57
2022/03/01 01:30:03;;;;;;;17.93;12.00;;;;;;;;;;5033965;28;20501;-57
2022/03/01 01:32:29;;;;;;;19.83;12.57;;;;;;;;;;5033898;28;20475;-57
2022/03/01 01:34:55;;;;;;;18.37;12.27;;;;;;;;;;5033582;28;20471;-57
2022/03/01 01:37:21;;;;;;;18.13;12.73;;;;;;;;;;5033528;28;20453;-57
2022/03/01 01:39:48;;;;;;;18.10;11.60;;;;;;;;;;5033538;28;20208;-57
2022/03/01 01:42:14;;;;;;;18.63;11.50;;;;;;;;;;5033702;28;20210;-57
2022/03/01 01:44:43;;;;;;;19.97;12.50;;;;;;;;;;5033407;28;20432;-57
2022/03/01 01:47:09;;;;;;;17.10;12.73;;;;;;;;;;5033494;28;20216;-57
2022/03/01 01:49:35;;;;;;;17.53;11.93;;;;;;;;;;5033231;28;20444;-57
2022/03/01 01:52:01;;;;;;;18.37;12.60;;;;;;;;;;5033447;28;20670;-58
2022/03/01 01:54:26;;;;;;;19.37;12.20;;;;;;;;;;5033262;28;20529;-58
2022/03/01 01:56:54;;;;;;;19.87;12.60;;;;;;;;;;5033574;28;20215;-58
2022/03/01 01:59:20;;;;;;;18.97;13.00;;;;;;;;;;5033278;28;20280;-58
2022/03/01 02:01:46;;;;;;;17.87;11.93;;;;;;;;;;5033419;28;20472;-58
2022/03/01 02:04:12;;;;;;;16.97;11.77;;;;;;;;;;5033197;28;20193;-58
2022/03/01 02:06:38;;;;;;;18.63;11.63;;;;;;;;;;5033134;28;20211;-57
2022/03/01 02:09:05;;;;;;;20.17;12.83;;;;;;;;;;5032983;28;20523;-57
2022/03/01 02:11:33;;;;;;;19.30;12.33;;;;;;;;;;5033127;28;20522;-57
2022/03/01 02:14:00;;;;;;;21.67;12.80;;;;;;;;;;5033301;28;20503;-58
2022/03/01 02:16:26;;;;;;;17.40;11.97;;;;;;;;;;5033072;28;20523;-58
2022/03/01 02:18:53;;;;;;;18.80;11.83;;;;;;;;;;5033079;28;20881;-58
2022/03/01 02:21:21;;;;;;;17.33;12.47;;;;;;;;;;5032962;28;20205;-58
2022/03/01 02:23:47;;;;;;;18.53;12.23;;;;;;;;;;5032827;28;20465;-58
2022/03/01 02:26:13;;;;;;;18.47;12.40;;;;;;;;;;4998041;28;1020859;-58
2022/03/01 02:28:39;;;;;;;18.77;12.43;;;;;;;;;;5033949;28;20275;-58
2022/03/01 02:31:05;;;;;;;19.47;13.43;;;;;;;;;;5033482;28;20208;-58
2022/03/01 02:33:31;;;;;;;16.07;11.17;;;;;;;;;;5033977;28;20443;-58
2022/03/01 02:35:57;;;;;;;18.33;12.57;;;;;;;;;;5034179;28;20224;-58
2022/03/01 02:38:24;;;;;;;18.20;11.90;;;;;;;;;;5033845;28;20501;-58
2022/03/01 02:40:50;;;;;;;16.77;11.67;;;;;;;;;;5033652;28;20455;-58
2022/03/01 02:43:16;;;;;;;16.03;11.30;;;;;;;;;;5033828;28;20463;-60
2022/03/01 02:45:42;;;;;;;16.43;12.40;;;;;;;;;;5033782;28;20662;-58
2022/03/01 02:48:08;;;;;;;21.27;11.97;;;;;;;;;;5033625;28;20447;-58
2022/03/01 02:50:35;;;;;;;17.30;11.37;;;;;;;;;;5033499;28;20251;-59
2022/03/01 02:53:01;;;;;;;16.83;12.27;;;;;;;;;;5033804;28;20445;-59
2022/03/01 02:55:28;;;;;;;18.60;13.03;;;;;;;;;;5033538;28;20487;-58
2022/03/01 02:57:54;;;;;;;15.70;12.07;;;;;;;;;;5033570;28;20479;-58
2022/03/01 03:00:20;;;;;;;19.50;12.67;;;;;;;;;;5033464;28;20471;-58
2022/03/01 03:02:46;;;;;;;17.43;11.50;;;;;;;;;;5033333;28;20212;-58
2022/03/01 03:05:12;;;;;;;18.83;12.00;;;;;;;;;;5031950;28;20613;-58
2022/03/01 03:07:38;;;;;;;19.20;12.37;;;;;;;;;;5033148;28;20436;-58
2022/03/01 03:10:04;;;;;;;18.43;12.70;;;;;;;;;;5033163;28;20802;-59
2022/03/01 03:12:32;;;;;;;17.27;12.50;;;;;;;;;;5033213;28;20494;-58
2022/03/01 03:14:58;;;;;;;20.13;12.80;;;;;;;;;;5033184;28;20482;-58
2022/03/01 03:17:24;;;;;;;16.20;11.67;;;;;;;;;;5033105;28;20432;-59
2022/03/01 03:19:50;;;;;;;16.60;12.53;;;;;;;;;;5032822;28;20615;-58
2022/03/01 03:22:16;;;;;;;16.20;11.73;;;;;;;;;;5033169;28;20205;-59
2022/03/01 03:24:42;;;;;;;17.57;12.00;;;;;;;;;;5033116;28;20478;-59
2022/03/01 03:27:08;;;;;;;20.27;12.07;;;;;;;;;;5033118;28;20929;-58
2022/03/01 03:29:36;;;;;;;15.53;11.93;;;;;;;;;;5032657;28;20220;-58
2022/03/01 03:32:02;;;;;;;18.43;12.27;;;;;;;;;;5032939;28;20522;-58
2022/03/01 03:34:28;;;;;;;18.50;12.20;;;;;;;;;;5032731;28;20477;-59
2022/03/01 03:36:54;;;;;;;18.93;12.30;;;;;;;;;;5032484;28;20435;-59
2022/03/01 03:39:20;;;;;;;19.67;12.33;;;;;;;;;;5032544;28;20440;-59
2022/03/01 03:41:46;;;;;;;16.67;11.50;;;;;;;;;;5032000;28;20444;-59
2022/03/01 03:44:12;;;;;;;15.27;11.13;;;;;;;;;;5032605;28;20432;-59
2022/03/01 03:46:39;;;;;;;17.40;12.03;;;;;;;;;;5032279;28;20811;-59
2022/03/01 03:49:05;;;;;;;16.47;11.10;;;;;;;;;;5032246;28;20992;-58
2022/03/01 03:51:31;;;;;;;17.50;11.77;;;;;;;;;;5032480;28;20444;-58
2022/03/01 03:53:58;;;;;;;17.00;11.60;;;;;;;;;;5032423;28;20472;-59
2022/03/01 03:56:24;;;;;;;18.53;11.67;;;;;;;;;;5032296;28;20913;-58
2022/03/01 03:58:50;;;;;;;18.77;12.47;;;;;;;;;;5032155;28;20448;-58
2022/03/01 04:01:16;;;;;;;15.03;11.17;;;;;;;;;;5032411;28;20436;-58
2022/03/01 04:03:43;;;;;;;17.10;11.03;;;;;;;;;;5031842;28;21021;-58
2022/03/01 04:06:09;;;;;;;17.83;11.23;;;;;;;;;;5032105;28;20439;-58
2022/03/01 04:08:35;;;;;;;18.47;13.10;;;;;;;;;;5031906;28;20817;-58
2022/03/01 04:11:01;;;;;;;16.87;11.27;;;;;;;;;;5032214;28;20200;-58
2022/03/01 04:13:27;;;;;;;16.87;12.13;;;;;;;;;;5032019;28;20557;-58
2022/03/01 04:15:53;;;;;;;17.83;12.17;;;;;;;;;;5031871;28;20534;-59
2022/03/01 04:18:19;;;;;;;13.33;10.87;;;;;;;;;;5031907;28;20459;-58
2022/03/01 04:20:46;;;;;;;16.03;10.80;;;;;;;;;;5032023;28;20821;-58
2022/03/01 04:23:13;;;;;;;15.53;11.10;;;;;;;;;;5031748;28;20221;-58
2022/03/01 04:25:39;;;;;;;20.13;12.37;;;;;;;;;;5031531;28;20498;-58
2022/03/01 04:28:05;;;;;;;15.37;11.03;;;;;;;;;;5031764;28;20522;-59
2022/03/01 04:30:31;;;;;;;15.23;10.37;;;;;;;;;;5031833;28;20523;-58
2022/03/01 04:32:57;;;;;;;18.37;12.43;;;;;;;;;;5031690;28;20462;-58
2022/03/01 04:35:23;;;;;;;17.10;11.77;;;;;;;;;;5031544;28;20224;-58
2022/03/01 04:37:50;;;;;;;18.37;11.67;;;;;;;;;;5031379;28;20828;-58
2022/03/01 04:40:18;;;;;;;15.00;10.30;;;;;;;;;;5031777;28;20452;-58
2022/03/01 04:42:44;;;;;;;15.77;10.63;;;;;;;;;;5031573;28;20773;-59
2022/03/01 04:45:10;;;;;;;18.23;11.77;;;;;;;;;;5031532;28;20806;-58
2022/03/01 04:47:36;;;;;;;17.23;11.53;;;;;;;;;;5031346;28;20462;-59
2022/03/01 04:50:03;;;;;;;18.30;11.27;;;;;;;;;;5031523;28;20509;-58
2022/03/01 04:52:29;;;;;;;16.60;11.50;;;;;;;;;;5031548;28;20523;-58
2022/03/01 04:54:56;;;;;;;16.80;11.17;;;;;;;;;;5031079;28;20562;-58
2022/03/01 04:57:22;;;;;;;15.23;11.27;;;;;;;;;;5031307;28;20216;-58
2022/03/01 04:59:48;;;;;;;15.73;11.27;;;;;;;;;;5031135;28;20439;-58
2022/03/01 05:02:14;;;;;;;17.57;11.57;;;;;;;;;;5031532;28;20845;-58
2022/03/01 05:04:40;;;;;;;16.33;10.80;;;;;;;;;;5031370;28;20280;-58
2022/03/01 05:07:06;;;;;;;18.77;11.47;;;;;;;;;;5031269;28;20215;-58
2022/03/01 05:09:34;;;;;;;19.13;11.73;;;;;;;;;;5031210;28;20439;-58
2022/03/01 05:12:01;;;;;;;17.43;10.80;;;;;;;;;;5031492;28;20463;-58
2022/03/01 05:14:27;;;;;;;16.67;11.17;;;;;;;;;;5031285;28;20475;-58
2022/03/01 05:16:53;;;;;;;18.50;11.60;;;;;;;;;;5031047;28;20435;-58
2022/03/01 05:19:19;;;;;;;18.47;11.47;;;;;;;;;;5031075;28;20611;-58
2022/03/01 05:21:45;;;;;;;17.43;11.17;;;;;;;;;;5031121;28;20284;-58
2022/03/01 05:24:11;;;;;;;17.70;11.43;;;;;;;;;;5031201;28;20235;-58
2022/03/01 05:26:37;;;;;;;15.40;10.17;;;;;;;;;;5030480;28;20472;-58
2022/03/01 05:29:07;;;;;;;16.77;10.57;;;;;;;;;;5030977;28;20227;-58
2022/03/01 05:31:33;;;;;;;15.37;10.53;;;;;;;;;;5030918;28;20889;-58
2022/03/01 05:34:00;;;;;;;17.40;10.83;;;;;;;;;;5031030;28;20431;-58
2022/03/01 05:36:26;;;;;;;17.00;10.53;;;;;;;;;;5030995;28;20570;-58
2022/03/01 05:38:52;;;;;;;17.10;11.50;;;;;;;;;;5030930;28;20478;-58
2022/03/01 05:41:18;;;;;;;17.87;11.00;;;;;;;;;;5031106;28;20664;-58
2022/03/01 05:43:45;;;;;;;16.57;11.00;;;;;;;;;;5031078;28;20432;-58
2022/03/01 05:46:12;;;;;;;15.63;10.50;;;;;;;;;;5031220;28;20442;-58
2022/03/01 05:48:38;;;;;;;16.07;11.00;;;;;;;;;;5030683;28;20444;-58
2022/03/01 05:51:06;;;;;;;15.07;10.13;;;;;;;;;;5030913;28;20956;-57
2022/03/01 05:53:32;;;;;;;16.23;10.47;;;;;;;;;;5030757;28;20724;-58
2022/03/01 05:55:58;;;;;;;16.20;11.13;;;;;;;;;;5030798;28;20552;-58
2022/03/01 05:58:24;;;;;;;19.57;11.60;;;;;;;;;;5030847;28;20523;-58
2022/03/01 06:00:50;;;;;;;14.37;10.77;;;;;;;;;;5030701;28;20212;-58
2022/03/01 06:03:17;;;;;;;15.87;10.87;;;;;;;;;;5030713;28;20236;-58
2022/03/01 06:05:43;;;;;;;17.00;11.40;;;;;;;;;;5032041;28;20201;-58
2022/03/01 06:08:09;;;;;;;19.40;11.73;;;;;;;;;;5033965;28;20439;-58
2022/03/01 06:10:35;;;;;;;19.57;11.23;;;;;;;;;;5034082;28;20433;-58
2022/03/01 06:13:01;;;;;;;16.87;11.40;;;;;;;;;;5033836;28;20654;-58
2022/03/01 06:15:27;;;;;;;18.43;10.33;;;;;;;;;;5033762;28;20526;-57
2022/03/01 06:17:53;;;;;;;18.17;10.90;;;;;;;;;;5033607;28;20204;-58
2022/03/01 06:20:20;;;;;;;19.13;11.70;;;;;;;;;;5033864;28;20280;-58
2022/03/01 06:22:47;;;;;;;16.17;10.90;;;;;;;;;;5033880;28;20204;-58
2022/03/01 06:25:13;;;;;;;15.67;11.67;;;;;;;;;;5033995;28;20554;-58
2022/03/01 06:27:39;;;;;;;18.70;10.53;;;;;;;;;;5033766;28;20498;-57
2022/03/01 06:30:07;;;;;;;16.50;10.57;;;;;;;;;;5033980;28;20439;-58
2022/03/01 06:32:33;;;;;;;17.43;11.33;;;;;;;;;;5033746;28;20431;-58
2022/03/01 06:34:59;;;;;;;19.50;11.73;;;;;;;;;;5033480;28;20979;-58
2022/03/01 06:37:26;;;;;;;17.83;10.90;;;;;;;;;;5033397;28;20532;-58
2022/03/01 06:39:53;;;;;;;18.93;11.27;;;;;;;;;;5033601;28;20439;-58
2022/03/01 06:42:19;;;;;;;19.27;12.37;;;;;;;;;;5034107;28;20439;-58
2022/03/01 06:44:45;;;;;;;17.50;10.77;;;;;;;;;;5033787;28;20443;-58
2022/03/01 06:47:11;;;;;;;17.53;11.37;;;;;;;;;;5033466;28;20982;-59
2022/03/01 06:49:37;;;;;;;17.13;10.70;;;;;;;;;;5033601;28;20440;-61
2022/03/01 06:52:04;;;;;;;17.30;10.40;;;;;;;;;;5033442;28;20201;-65
2022/03/01 06:54:31;;;;;;;17.47;12.40;;;;;;;;;;5033361;28;20475;-62
2022/03/01 06:56:57;;;;;;;15.37;10.57;;;;;;;;;;5033465;28;20442;-61
2022/03/01 06:59:26;;;;;;;17.07;10.73;;;;;;;;;;5033648;28;20435;-61
2022/03/01 07:01:52;;;;;;;17.07;11.67;;;;;;;;;;5033489;28;20424;-61
2022/03/01 07:04:18;;;;;;;17.53;12.13;;;;;;;;;;5033719;28;20438;-61
2022/03/01 07:06:44;;;;;;;16.27;11.67;;;;;;;;;;5033542;28;20432;-61
2022/03/01 07:09:10;;;;;;;19.77;11.23;;;;;;;;;;5033008;28;20502;-61
2022/03/01 07:11:37;;;;;;;17.50;11.70;;;;;;;;;;5033294;28;20280;-61
2022/03/01 07:14:03;;;;;;;17.10;11.57;;;;;;;;;;5033050;28;20539;-61
2022/03/01 07:16:29;;;;;;;21.63;11.87;;;;;;;;;;5032834;28;20472;-61
2022/03/01 07:18:55;;;;;;;15.63;10.87;;;;;;;;;;5032609;28;20914;-61
2022/03/01 07:21:21;;;;;;;17.67;11.10;;;;;;;;;;5033108;28;20914;-61
2022/03/01 07:23:47;;;;;;;15.43;10.87;;;;;;;;;;5033107;28;20893;-61
2022/03/01 07:26:13;;;;;;;17.43;11.17;;;;;;;;;;5033111;28;20470;-61
2022/03/01 07:28:41;;;;;;;17.47;11.10;;;;;;;;;;5033107;28;20448;-61
2022/03/01 07:31:07;;;;;;;17.30;10.50;;;;;;;;;;5033092;28;20288;-61
2022/03/01 07:33:33;;;;;;;16.07;11.27;;;;;;;;;;5032871;28;20538;-61
2022/03/01 07:36:00;;;;;;;15.37;11.80;;;;;;;;;;5033027;28;20471;-62
2022/03/01 07:38:26;;;;;;;15.77;11.20;;;;;;;;;;5033069;28;20436;-62
2022/03/01 07:40:52;;;;;;;16.50;11.03;;;;;;;;;;5032733;28;20446;-62
2022/03/01 07:43:18;;;;;;;17.00;11.20;;;;;;;;;;5032692;28;20523;-61
2022/03/01 07:45:45;;;;;;;16.07;11.20;;;;;;;;;;5032776;28;20193;-62
2022/03/01 07:48:12;;;;;;;17.17;11.67;;;;;;;;;;5032847;28;20205;-62
2022/03/01 07:50:38;;;;;;;16.93;11.03;;;;;;;;;;5032723;28;20443;-62
2022/03/01 07:53:04;;;;;;;17.17;11.57;;;;;;;;;;5032477;28;20501;-61
2022/03/01 07:55:31;;;;;;;20.43;11.73;;;;;;;;;;5032750;28;20479;-61
2022/03/01 07:57:57;;;;;;;19.80;12.70;;;;;;;;;;5032573;28;20444;-61
2022/03/01 08:00:27;;;;;;;16.93;11.33;;;;;;;;;;5032671;28;20458;-61
2022/03/01 08:02:54;;;;;;;15.83;11.30;;;;;;;;;;5032369;28;20471;-61
2022/03/01 08:05:21;;;;;;;16.63;12.00;;;;;;;;;;5032451;28;20432;-61
2022/03/01 08:07:47;;;;;;;16.77;11.40;;;;;;;;;;5032462;28;20538;-61
2022/03/01 08:10:13;;;;;;;16.47;11.20;;;;;;;;;;5032523;28;20428;-61
2022/03/01 08:12:39;;;;;;;21.43;11.10;;;;;;;;;;5032027;28;20486;-61
2022/03/01 08:15:05;;;;;;;17.13;11.17;;;;;;;;;;5031817;28;20756;-62
2022/03/01 08:17:31;;;;;;;16.93;11.10;;;;;;;;;;5031700;28;20442;-62
2022/03/01 08:19:59;;;;;;;15.97;10.93;;;;;;;;;;5032125;28;20440;-64
2022/03/01 08:22:25;;;;;;;15.53;10.53;;;;;;;;;;5032305;28;20457;-61
2022/03/01 08:24:51;;;;;;;15.23;10.47;;;;;;;;;;5031582;28;21277;-62
2022/03/01 08:27:17;;;;;;;15.33;11.37;;;;;;;;;;5032164;28;20291;-62
2022/03/01 08:29:43;;;;;;;19.40;11.50;;;;;;;;;;5031677;28;20458;-62
2022/03/01 08:32:09;;;;;;;17.33;11.83;;;;;;;;;;5031943;28;20432;-62
2022/03/01 08:34:36;;;;;;;17.83;11.53;;;;;;;;;;5031690;28;20517;-62
2022/03/01 08:37:03;;;;;;;16.07;11.93;;;;;;;;;;5031771;28;20236;-62
2022/03/01 08:39:29;;;;;;;15.90;10.70;;;;;;;;;;5031721;28;20692;-62
2022/03/01 08:41:55;;;;;;;17.30;11.43;;;;;;;;;;5031691;28;20953;-61
2022/03/01 08:44:22;;;;;;;15.57;10.63;;;;;;;;;;5031857;28;20197;-62
2022/03/01 08:46:48;;;;;;;17.20;11.30;;;;;;;;;;5031597;28;20444;-61
2022/03/01 08:49:17;;;;;;;19.03;11.20;;;;;;;;;;5031738;28;20463;-63
2022/03/01 08:51:43;;;;;;;16.43;11.80;;;;;;;;;;5031734;28;20455;-60
2022/03/01 08:54:11;;;;;;;17.50;12.00;;;;;;;;;;5031538;28;20504;-61
2022/03/01 08:56:37;;;;;;;16.60;11.00;;;;;;;;;;5031513;28;20621;-61
2022/03/01 08:59:05;;;;;;;16.53;10.50;;;;;;;;;;5031605;28;20842;-61
2022/03/01 09:01:31;;;;;;;17.47;11.57;;;;;;;;;;5031544;28;20235;-61
2022/03/01 09:03:59;;;;;;;14.20;10.43;;;;;;;;;;5031424;28;20443;-62
2022/03/01 09:06:25;;;;;;;13.80;10.10;;;;;;;;;;5031459;28;20520;-61
2022/03/01 09:08:51;;;;;;;14.47;10.37;;;;;;;;;;5031421;28;20534;-61
2022/03/01 09:11:19;;;;;;;14.70;10.33;;;;;;;;;;5031589;28;20192;-62
2022/03/01 09:13:45;;;;;;;15.77;10.87;;;;;;;;;;5031609;28;20655;-61
2022/03/01 09:16:11;;;;;;;14.93;11.23;;;;;;;;;;5031403;28;20244;-61
2022/03/01 09:18:37;;;;;;;14.23;10.43;;;;;;;;;;5031020;28;20197;-62
2022/03/01 09:21:03;;;;;;;16.40;10.40;;;;;;;;;;5031504;28;20313;-62
2022/03/01 09:23:30;;;;;;;13.70;9.77;;;;;;;;;;5031390;28;20224;-61
2022/03/01 09:25:57;;;;;;;15.73;11.07;;;;;;;;;;5030926;28;20236;-61
2022/03/01 09:28:24;;;;;;;14.97;9.97;;;;;;;;;;5031040;28;20292;-62
2022/03/01 09:30:50;;;;;;;15.00;11.03;;;;;;;;;;5031210;28;20219;-62
2022/03/01 09:33:17;;;;;;;13.43;9.60;;;;;;;;;;5031057;28;20193;-62
2022/03/01 09:35:43;;;;;;;13.63;10.70;;;;;;;;;;5030940;28;20267;-62
2022/03/01 09:38:09;;;;;;;13.53;9.33;;;;;;;;;;5031191;28;20200;-62
2022/03/01 09:40:35;;;;;;;13.13;10.13;;;;;;;;;;5032234;28;20254;-62
2022/03/01 09:43:01;;;;;;;13.50;10.37;;;;;;;;;;5035026;28;20204;-60
2022/03/01 09:45:29;;;;;;;12.63;9.50;;;;;;;;;;5035030;28;20189;-61
2022/03/01 09:47:55;;;;;;;14.73;10.07;;;;;;;;;;5034691;28;20208;-62
2022/03/01 09:50:27;;;;;;;14.70;10.93;;;;;;;;;;5035072;28;20189;-60
2022/03/01 09:52:53;;;;;;;12.37;9.70;;;;;;;;;;5034943;28;20613;-61
2022/03/01 09:55:19;;;;;;;12.73;10.00;;;;;;;;;;5034791;28;20233;-62
2022/03/01 09:57:45;;;;;;;13.53;9.87;;;;;;;;;;5034859;28;20278;-62
2022/03/01 10:00:12;;;;;;;12.80;9.40;;;;;;;;;;5034833;28;20284;-62
2022/03/01 10:02:41;;;;;;;12.50;10.20;;;;;;;;;;5034763;28;20197;-62
2022/03/01 10:05:08;;;;;;;12.10;9.63;;;;;;;;;;5034629;28;20233;-62
2022/03/01 10:07:34;;;;;;;11.83;9.60;;;;;;;;;;5034699;28;20217;-62
2022/03/01 10:10:04;;;;;;;13.20;9.33;;;;;;;;;;5034631;28;20615;-61
2022/03/01 10:12:30;;;;;;;11.70;10.30;;;;;;;;;;5034569;28;20255;-61
2022/03/01 10:14:59;;;;;;;12.03;9.40;;;;;;;;;;5034484;28;20234;-61
2022/03/01 10:17:32;;;;;;;11.83;9.70;;;;;;;;;;5034469;28;20212;-62
2022/03/01 10:20:05;;;;;;;11.83;9.83;;;;;;;;;;5032650;28;20197;-61
2022/03/01 10:22:30;;;;;;;16.80;10.23;;;;;;;;;;5034308;28;20220;-62
2022/03/01 10:25:03;;;;;;;11.50;9.77;;;;;;;;;;5033995;28;20270;-60
2022/03/01 10:27:29;;;;;;;11.83;9.70;;;;;;;;;;5034376;28;20211;-62
2022/03/01 10:29:55;;;;;;;12.70;10.27;;;;;;;;;;5032481;28;20257;-61
2022/03/01 10:32:21;;;;;;;11.83;9.40;;;;;;;;;;5034184;28;20210;-62
2022/03/01 10:35:01;;;;;;;15.93;11.17;;;;;;;;;;5034071;28;20234;-62
2022/03/01 10:37:29;;;;;;;12.93;9.53;;;;;;;;;;5034163;28;20202;-61
2022/03/01 10:40:10;;;;;;;10.80;9.57;;;;;;;;;;5034012;28;20201;-61
2022/03/01 10:42:36;;;;;;;11.93;9.73;;;;;;;;;;5031754;28;20201;-61
2022/03/01 10:45:02;;;;;;;13.17;9.77;;;;;;;;;;5034228;28;20220;-61
2022/03/01 10:47:28;;;;;;;11.13;9.13;;;;;;;;;;5034057;28;20197;-62
2022/03/01 10:50:00;;;;;;;11.93;9.33;;;;;;;;;;5033821;28;20212;-62
2022/03/01 10:52:33;;;;;;;12.67;9.57;;;;;;;;;;5033627;28;20197;-62
2022/03/01 10:54:59;;;;;;;10.73;9.23;;;;;;;;;;5033820;28;20316;-61
2022/03/01 10:57:25;;;;;;;15.87;9.93;;;;;;;;;;5033771;28;20284;-61
2022/03/01 10:59:52;;;;;;;13.60;10.30;;;;;;;;;;5033676;28;20204;-62
2022/03/01 11:02:18;;;;;;;16.20;9.60;;;;;;;;;;5033726;28;20247;-62
2022/03/01 11:04:44;;;;;;;15.23;9.77;;;;;;;;;;5033746;28;20195;-61
2022/03/01 11:07:11;;;;;;;12.20;9.93;;;;;;;;;;5033509;28;20201;-62
2022/03/01 11:09:38;;;;;;;12.07;10.40;;;;;;;;;;5033532;28;20201;-62
2022/03/01 11:12:05;;;;;;;11.20;9.83;;;;;;;;;;5033441;28;20286;-61
2022/03/01 11:14:34;;;;;;;12.23;9.53;;;;;;;;;;5033395;28;20275;-61
2022/03/01 11:17:02;;;;;;;13.13;9.97;;;;;;;;;;5033258;28;20674;-61
2022/03/01 11:19:51;;;;;;;12.97;9.83;;;;;;;;;;5033399;28;20272;-63
2022/03/01 11:22:25;;;;;;;13.53;10.23;;;;;;;;;;5033391;28;20207;-62
2022/03/01 11:24:53;;;;;;;13.37;10.30;;;;;;;;;;5032829;28;20251;-60
2022/03/01 11:27:19;;;;;;;12.73;10.07;;;;;;;;;;5033122;28;20667;-61
2022/03/01 11:29:45;;;;;;;13.37;10.60;;;;;;;;;;5033133;28;20199;-61
2022/03/01 11:32:13;;;;;;;11.03;9.37;;;;;;;;;;5032850;28;20201;-62
2022/03/01 11:34:39;;;;;;;13.53;9.63;;;;;;;;;;5032498;28;20723;-61
2022/03/01 11:37:11;;;;;;;13.33;9.53;;;;;;;;;;5032786;28;20792;-62
2022/03/01 11:39:37;;;;;;;12.13;9.73;;;;;;;;;;5032904;28;20209;-61
2022/03/01 11:42:06;;;;;;;13.27;9.83;;;;;;;;;;5032876;28;20736;-61
2022/03/01 11:44:34;;;;;;;12.90;9.67;;;;;;;;;;5033034;28;20201;-62
2022/03/01 11:47:02;;;;;;;11.53;9.73;;;;;;;;;;5032922;28;20228;-62
2022/03/01 11:49:33;;;;;;;13.10;10.30;;;;;;;;;;5033024;28;20201;-62
2022/03/01 11:52:00;;;;;;;14.63;9.67;;;;;;;;;;5031200;28;20565;-62
2022/03/01 11:54:27;;;;;;;13.80;11.00;;;;;;;;;;5032702;28;20617;-61
2022/03/01 11:56:55;;;;;;;15.50;10.47;;;;;;;;;;5032445;28;20243;-61
2022/03/01 11:59:22;;;;;;;13.93;10.13;;;;;;;;;;5032564;28;20189;-61
2022/03/01 12:01:49;;;;;;;12.93;9.93;;;;;;;;;;5032103;28;20204;-61
2022/03/01 12:04:20;;;;;;;10.37;9.20;;;;;;;;;;5031805;28;20196;-61
2022/03/01 12:06:46;;;;;;;12.57;9.33;;;;;;;;;;5032445;28;20201;-61
2022/03/01 12:09:12;;;;;;;15.40;10.17;;;;;;;;;;5032530;28;20270;-61
2022/03/01 12:11:39;;;;;;;11.70;9.77;;;;;;;;;;5032284;28;20279;-61
2022/03/01 12:14:07;;;;;;;10.90;9.40;;;;;;;;;;5032104;28;20200;-62
2022/03/01 12:16:34;;;;;;;13.20;10.13;;;;;;;;;;5031784;28;20251;-61
2022/03/01 12:19:07;;;;;;;15.90;10.87;;;;;;;;;;5032196;28;20209;-62
2022/03/01 12:21:34;;;;;;;14.73;11.13;;;;;;;;;;5031991;28;20708;-60
2022/03/01 12:24:00;;;;;;;12.87;10.13;;;;;;;;;;5031890;28;20224;-61
2022/03/01 12:26:27;;;;;;;12.83;10.70;;;;;;;;;;5031806;28;20225;-61
2022/03/01 12:28:56;;;;;;;16.60;12.03;;;;;;;;;;5031718;28;20276;-62
2022/03/01 12:31:26;;;;;;;14.07;11.13;;;;;;;;;;5031737;28;20197;-62
2022/03/01 12:33:54;;;;;;;14.27;10.70;;;;;;;;;;5031697;28;20538;-62
2022/03/01 12:36:24;;;;;;;15.80;11.10;;;;;;;;;;5031693;28;20328;-62
2022/03/01 12:38:52;;;;;;;13.97;10.57;;;;;;;;;;5031580;28;20201;-62
2022/03/01 12:41:21;;;;;;;14.97;11.33;;;;;;;;;;5031704;28;20201;-61
2022/03/01 12:43:51;;;;;;;14.60;11.43;;;;;;;;;;5031701;28;20201;-61
2022/03/01 12:46:17;;;;;;;14.40;10.77;;;;;;;;;;5031799;28;20204;-61
2022/03/01 12:48:44;;;;;;;13.80;11.10;;;;;;;;;;5031685;28;20199;-60
2022/03/01 12:51:12;;;;;;;16.03;11.47;;;;;;;;;;5031681;28;20669;-60
2022/03/01 12:53:38;;;;;;;12.57;10.17;;;;;;;;;;5031689;28;20240;-64
2022/03/01 12:56:04;;;;;;;12.90;10.27;;;;;;;;;;5031288;28;20259;-61
2022/03/01 12:58:30;;;;;;;14.00;10.70;;;;;;;;;;5031662;28;20201;-61
2022/03/01 13:01:04;;;;;;;14.30;10.43;;;;;;;;;;5031361;28;20270;-61
2022/03/01 13:03:31;;;;;;;14.10;10.30;;;;;;;;;;5031489;28;20208;-62
2022/03/01 13:06:04;;;;;;;13.57;10.03;;;;;;;;;;5031498;28;20219;-62
2022/03/01 13:08:32;;;;;;;12.70;10.73;;;;;;;;;;5031646;28;20591;-61
2022/03/01 13:10:58;;;;;;;12.17;10.47;;;;;;;;;;5031338;28;20205;-62
2022/03/01 13:13:24;;;;;;;15.27;11.10;;;;;;;;;;5031307;28;20750;-61
2022/03/01 13:15:50;;;;;;;12.87;9.87;;;;;;;;;;5034467;28;20311;-61
2022/03/01 13:18:24;;;;;;;13.90;10.37;;;;;;;;;;5034081;28;20662;-61
2022/03/01 13:20:50;;;;;;;15.90;10.17;;;;;;;;;;5035225;28;20204;-61
2022/03/01 13:23:19;;;;;;;14.80;10.27;;;;;;;;;;5035504;28;20274;-61
2022/03/01 13:25:46;;;;;;;12.77;10.60;;;;;;;;;;5035249;28;20236;-61
2022/03/01 13:28:12;;;;;;;14.43;10.50;;;;;;;;;;5035678;28;20292;-62
2022/03/01 13:30:43;;;;;;;14.47;10.60;;;;;;;;;;5033650;28;20296;-62
2022/03/01 13:33:10;;;;;;;12.53;9.40;;;;;;;;;;5035330;28;20657;-61
2022/03/01 13:35:37;;;;;;;13.23;9.57;;;;;;;;;;5035098;28;20833;-61
2022/03/01 13:38:04;;;;;;;13.63;9.40;;;;;;;;;;5035269;28;20207;-61
2022/03/01 13:40:30;;;;;;;15.60;10.73;;;;;;;;;;5035451;28;20193;-61
2022/03/01 13:43:08;;;;;;;12.40;9.77;;;;;;;;;;5035177;28;20192;-60
2022/03/01 13:45:35;;;;;;;13.70;10.00;;;;;;;;;;5035174;28;20224;-61
2022/03/01 13:48:14;;;;;;;15.57;9.83;;;;;;;;;;5034926;28;20220;-62
2022/03/01 13:50:41;;;;;;;14.37;10.13;;;;;;;;;;5034498;28;20251;-60
2022/03/01 13:53:11;;;;;;;11.77;9.37;;;;;;;;;;5034607;28;20612;-61
2022/03/01 13:55:37;;;;;;;12.27;9.80;;;;;;;;;;5034693;28;20235;-61
2022/03/01 13:58:04;;;;;;;13.70;10.23;;;;;;;;;;5032805;28;20276;-61
2022/03/01 14:00:33;;;;;;;13.03;10.43;;;;;;;;;;5034789;28;20705;-61
2022/03/01 14:02:59;;;;;;;11.97;9.57;;;;;;;;;;5034558;28;20205;-61
2022/03/01 14:05:27;;;;;;;11.30;9.17;;;;;;;;;;5034539;28;20205;-62
2022/03/01 14:07:57;;;;;;;12.03;9.27;;;;;;;;;;5034476;28;20689;-62
2022/03/01 14:10:26;;;;;;;13.37;10.10;;;;;;;;;;5034612;28;20281;-62
2022/03/01 14:12:59;;;;;;;11.57;9.23;;;;;;;;;;5034524;28;20198;-62
2022/03/01 14:15:32;;;;;;;12.43;9.33;;;;;;;;;;5034353;28;20233;-62
2022/03/01 14:17:58;;;;;;;15.57;10.67;;;;;;;;;;5034424;28;20258;-62